Flight ASX315

  • Submitted By: Lukasz Przybylak
  • Departure Airport: Gdansk im. Lecha Walesy (EPGD)
  • Arrival Airport: Szczecin (EPSC)
  • Aircraft: KING AIR 350 (SP-DBL)
  • Flight Time: 01.07.54
  • Date Submitted: 09/08/2017
  • Status: Accepted
Flight Details
Gross Revenue:
(8 load / € 55.00 per unit
€ 440.00
Fuel Cost:
(210.013 fuel used @ 0.45 / unit)
€ 94.51

Additional Log Information:

View Log

[11:54] - CARENADO B350i King Air 5003
[11:54] - Flight ASX315 is ready to depart EPGD with a final destination of EPSC.
[11:54] - Parking Brake Applied
[11:54] - Boarding
[11:54] - ADF1 - 284.0
[11:54] - ADF2 - 240.0
[11:54] - NAV1 - 113.70
[11:54] - NAV2 - 110.60
[11:54] - COM1 - 128.30
[11:54] - COM2 - 127.80
[11:54] - Transponder - 1200
[11:55] - Navigation Lights ON 3AGL
[11:55] - Beacon Light ON 3AGL
[11:55] - Engine 1 Started
[11:57] - Engine 2 Started
[11:57] - Taxi Lights ON 3AGL
[11:58] - COM1 - 122.80
[11:58] - NAV1 - 110.50
[12:02] - Pushing Back from the gate
[12:02] - Parking Brake Released
[12:05] - Taxiing to Runway
[12:09] - Parking Brake Applied
[12:09] - Landing Lights ON 3AGL
[12:09] - Taxi Lights OFF 3AGL
[12:09] - Strobe Lights ON 3AGL
[12:10] - Parking Brake Released
[12:11] - Taking Off with 8 passengers on board
[12:11] - Take off at 126kts, with a pitch of 6deg and 1414lbs of fuel on board
[12:11] - Wind Heading 277 | Wind Speed 11kts | Temperature 15 deg C
[12:11] - METAR Departure: EPGD 081000Z 24012KT 9999 SCT021 16/11 Q1006

[12:12] - Climbing to TOC
[12:12] - AutoPilot Engaged at 873AGL
[12:12] - Gear up at 873AGL
[12:26] - Landing Lights OFF 13717AGL
[12:28] - TOC reached
[12:28] - Cruise started
[12:48] - TOD reached
[12:48] - Descending to destination
[12:49] - Landing Lights ON 9347AGL
[12:50] - AutoPilot Disengaged at 7464AGL
[12:51] - AutoPilot Engaged at 7766AGL
[12:51] - AutoPilot Disengaged at 7798AGL
[12:52] - Landing Shortly
[12:53] - AutoPilot Engaged at 3504AGL
[12:55] - Flaps to position 1 at 3084ft and 199kts
[12:55] - Gear down at 2474AGL
[12:56] - AutoPilot Disengaged at 1624AGL
[12:57] - Landed at -435fpm. With 1000lbs of fuel onboard and a pitch angle of 4deg.
[12:57] - Wind Heading 151 | Wind Speed 8kts | Temperature 14 deg C
[12:58] - Flaps to position 0
[12:58] - METAR Arrival: EPSC 081030Z 16009KT 9999 FEW008 14/12 Q1005

[12:58] - Taxiing to Gate
[12:58] - Parking Brake Applied
[12:58] - Arrived safely at EPSC. We hope you enjoyed your flight!
[12:58] - Landing Lights OFF 6AGL
[12:58] - Taxi Lights ON 6AGL
[12:58] - Parking Brake Released
[12:58] - Taxiing to Gate
[13:01] - Parking Brake Applied
[13:01] - Arrived safely at EPSC. We hope you enjoyed your flight!
[13:01] - Taxi Lights OFF 6AGL
[13:01] - Strobe Lights OFF 6AGL
[13:01] - Engine 1 Stopped
[13:01] - Engine 2 Stopped
[13:02] - CARENADO B350i King Air 5003
[13:02] - MaxSim Rate: 1x
[13:02] - SiouxAcars ver: 1.0.1.2

Route Map